createdAt,value
2023-03-07T00:00:16.330Z,17.83
2023-03-07T00:02:43.513Z,16.48
2023-03-07T00:05:10.697Z,16.40
2023-03-07T00:07:38.690Z,16.15
2023-03-07T00:10:05.999Z,16.75
2023-03-07T00:12:33.151Z,16.00
2023-03-07T00:15:00.404Z,16.60
2023-03-07T00:17:27.552Z,15.95
2023-03-07T00:19:54.696Z,17.08
2023-03-07T00:22:21.767Z,15.68
2023-03-07T00:24:49.405Z,15.18
2023-03-07T00:27:16.464Z,15.20
2023-03-07T00:29:43.646Z,12.82
2023-03-07T00:32:10.777Z,12.77
2023-03-07T00:34:37.950Z,11.75
2023-03-07T00:37:05.089Z,12.00
2023-03-07T00:39:32.268Z,12.20
2023-03-07T00:41:59.362Z,10.02
2023-03-07T00:44:29.887Z,10.50
2023-03-07T00:46:57.137Z,11.05
2023-03-07T00:49:24.283Z,10.70
2023-03-07T00:51:51.462Z,11.07
2023-03-07T00:54:18.655Z,10.20
2023-03-07T00:56:45.820Z,10.00
2023-03-07T00:59:12.997Z,11.52
2023-03-07T01:01:40.274Z,10.45
2023-03-07T01:04:07.852Z,9.57
2023-03-07T01:06:35.361Z,8.52
2023-03-07T01:09:04.661Z,8.82
2023-03-07T01:11:32.510Z,7.78
2023-03-07T01:14:01.285Z,6.35
2023-03-07T01:16:29.784Z,5.30
2023-03-07T01:18:58.909Z,4.20
2023-03-07T01:21:28.432Z,4.63
2023-03-07T01:23:57.143Z,3.72
2023-03-07T01:26:26.321Z,3.17
2023-03-07T01:28:55.299Z,2.85
2023-03-07T01:31:23.049Z,1.90
2023-03-07T01:33:51.176Z,1.80
2023-03-07T01:36:20.088Z,2.10
2023-03-07T01:38:49.022Z,2.00
2023-03-07T01:41:16.783Z,1.35
2023-03-07T01:43:45.461Z,1.50
2023-03-07T01:46:16.371Z,1.40
2023-03-07T01:48:49.440Z,1.60
2023-03-07T01:51:17.060Z,1.45
2023-03-07T01:53:45.154Z,1.02
2023-03-07T01:56:13.467Z,1.15
2023-03-07T01:58:40.847Z,1.20
2023-03-07T02:01:09.968Z,1.10
2023-03-07T02:03:43.693Z,1.00
2023-03-07T02:06:12.390Z,0.95
2023-03-07T02:08:39.763Z,1.10
2023-03-07T02:11:07.503Z,1.48
2023-03-07T02:13:35.286Z,1.00
2023-03-07T02:16:02.862Z,1.35
2023-03-07T02:18:31.639Z,1.73
2023-03-07T02:21:16.716Z,1.67
2023-03-07T02:23:59.110Z,1.65
2023-03-07T02:26:29.560Z,1.70
2023-03-07T02:28:57.966Z,2.08
2023-03-07T02:31:25.667Z,2.13
2023-03-07T02:33:52.910Z,1.52
2023-03-07T02:36:23.600Z,2.10
2023-03-07T02:39:06.866Z,1.90
2023-03-07T02:41:35.279Z,1.58
2023-03-07T02:44:08.310Z,1.85
2023-03-07T02:46:35.659Z,1.63
2023-03-07T02:49:02.860Z,1.77
2023-03-07T02:51:30.081Z,1.42
2023-03-07T02:53:57.509Z,1.77
2023-03-07T02:56:24.919Z,1.65
2023-03-07T02:58:52.084Z,1.60
2023-03-07T03:01:19.226Z,2.00
2023-03-07T03:03:46.486Z,1.92
2023-03-07T03:06:14.943Z,1.50
2023-03-07T03:08:42.112Z,1.48
2023-03-07T03:11:09.338Z,1.58
2023-03-07T03:13:38.957Z,1.38
2023-03-07T03:16:07.181Z,1.65
2023-03-07T03:18:34.483Z,1.50
2023-03-07T03:21:07.477Z,1.63
2023-03-07T03:23:34.763Z,1.50
2023-03-07T03:26:04.961Z,1.33
2023-03-07T03:28:33.064Z,1.67
2023-03-07T03:31:01.220Z,1.60
2023-03-07T03:33:29.762Z,1.55
2023-03-07T03:35:59.282Z,1.38
2023-03-07T03:38:27.200Z,1.58
2023-03-07T03:40:59.987Z,1.75
2023-03-07T03:43:27.931Z,1.50
2023-03-07T03:45:56.104Z,1.55
2023-03-07T03:48:24.650Z,1.52
2023-03-07T03:50:51.932Z,1.08
2023-03-07T03:53:19.174Z,2.22
2023-03-07T03:55:46.370Z,1.42
2023-03-07T03:58:13.533Z,1.92
2023-03-07T04:00:40.720Z,1.90
2023-03-07T04:03:07.849Z,1.63
2023-03-07T04:05:35.071Z,1.75
2023-03-07T04:08:02.552Z,2.17
2023-03-07T04:10:29.865Z,1.65
2023-03-07T04:12:57.086Z,1.45
2023-03-07T04:15:24.813Z,1.83
2023-03-07T04:17:52.030Z,1.80
2023-03-07T04:20:19.263Z,1.90
2023-03-07T04:22:48.013Z,3.45
2023-03-07T04:25:15.308Z,1.50
2023-03-07T04:27:43.479Z,2.00
2023-03-07T04:30:10.986Z,1.65
2023-03-07T04:32:39.419Z,1.52
2023-03-07T04:35:07.012Z,2.00
2023-03-07T04:37:34.181Z,2.17
2023-03-07T04:40:01.376Z,1.83
2023-03-07T04:42:28.503Z,1.88
2023-03-07T04:44:55.688Z,1.42
2023-03-07T04:47:22.780Z,1.60
2023-03-07T04:49:49.917Z,1.70
2023-03-07T04:52:17.152Z,1.75
2023-03-07T04:54:45.117Z,3.72
2023-03-07T04:57:12.353Z,2.53
2023-03-07T04:59:39.887Z,1.98
2023-03-07T05:02:08.187Z,2.10
2023-03-07T05:04:36.198Z,2.03
2023-03-07T05:07:03.615Z,3.33
2023-03-07T05:09:31.120Z,2.03
2023-03-07T05:12:00.014Z,1.63
2023-03-07T05:14:27.289Z,1.75
2023-03-07T05:16:54.474Z,2.25
2023-03-07T05:19:22.183Z,1.83
2023-03-07T05:21:50.424Z,2.20
2023-03-07T05:24:17.572Z,1.80
2023-03-07T05:26:44.959Z,2.05
2023-03-07T05:29:12.214Z,2.03
2023-03-07T05:31:39.539Z,2.03
2023-03-07T05:34:10.687Z,2.83
2023-03-07T05:36:38.989Z,2.17
2023-03-07T05:39:06.368Z,1.98
2023-03-07T05:41:35.397Z,1.90
2023-03-07T05:44:03.401Z,1.50
2023-03-07T05:46:30.669Z,1.50
2023-03-07T05:48:57.818Z,1.73
2023-03-07T05:51:25.040Z,1.70
2023-03-07T05:53:52.357Z,1.40
2023-03-07T05:56:19.708Z,1.52
2023-03-07T05:58:47.282Z,1.48
2023-03-07T06:01:14.712Z,1.80
2023-03-07T06:03:43.171Z,1.67
2023-03-07T06:06:10.687Z,2.45
2023-03-07T06:08:37.914Z,1.33
2023-03-07T06:11:05.192Z,1.80
2023-03-07T06:13:35.268Z,1.67
2023-03-07T06:16:02.473Z,1.60
2023-03-07T06:18:29.828Z,1.65
2023-03-07T06:21:04.372Z,1.83
2023-03-07T06:23:37.135Z,2.30
2023-03-07T06:26:10.286Z,1.45
2023-03-07T06:28:38.000Z,1.48
2023-03-07T06:31:08.812Z,1.38
2023-03-07T06:33:36.005Z,1.92
2023-03-07T06:36:07.113Z,1.52
2023-03-07T06:38:34.368Z,1.50
2023-03-07T06:41:02.449Z,1.10
2023-03-07T06:43:29.780Z,1.58
2023-03-07T06:45:57.283Z,1.60
2023-03-07T06:48:27.989Z,1.38
2023-03-07T06:50:55.523Z,1.20
2023-03-07T06:53:22.724Z,1.52
2023-03-07T06:55:50.667Z,1.63
2023-03-07T06:58:18.385Z,1.40
2023-03-07T07:00:46.035Z,1.48
2023-03-07T07:03:14.579Z,1.83
2023-03-07T07:05:41.901Z,1.60
2023-03-07T07:08:09.339Z,1.55
2023-03-07T07:10:36.863Z,1.10
2023-03-07T07:13:06.148Z,1.60
2023-03-07T07:15:33.955Z,1.48
2023-03-07T07:18:01.667Z,1.30
2023-03-07T07:20:30.939Z,1.60
2023-03-07T07:22:58.312Z,2.80
2023-03-07T07:25:25.464Z,1.58
2023-03-07T07:27:52.737Z,1.48
2023-03-07T07:30:21.104Z,1.40
2023-03-07T07:32:48.572Z,1.48
2023-03-07T07:35:15.934Z,1.60
2023-03-07T07:37:43.289Z,1.33
2023-03-07T07:40:10.909Z,1.40
2023-03-07T07:42:38.749Z,1.40
2023-03-07T07:45:32.595Z,1.40
2023-03-07T07:47:59.800Z,0.95
2023-03-07T07:50:28.163Z,1.00
2023-03-07T07:52:55.528Z,0.70
2023-03-07T07:55:24.954Z,1.20
2023-03-07T07:57:52.548Z,1.00
2023-03-07T08:00:21.520Z,1.02
2023-03-07T08:02:52.375Z,0.90
2023-03-07T08:05:20.593Z,0.93
2023-03-07T08:07:48.171Z,1.33
2023-03-07T08:10:16.438Z,1.33
2023-03-07T08:12:51.959Z,1.40
2023-03-07T08:15:21.578Z,0.85
2023-03-07T08:17:50.297Z,1.30
2023-03-07T08:20:17.798Z,1.10
2023-03-07T08:22:44.992Z,1.10
2023-03-07T08:25:17.472Z,1.45
2023-03-07T08:27:44.602Z,1.42
2023-03-07T08:30:12.075Z,1.20
2023-03-07T08:32:39.196Z,1.67
2023-03-07T08:35:09.422Z,1.15
2023-03-07T08:37:36.592Z,2.45
2023-03-07T08:40:06.075Z,1.60
2023-03-07T08:42:33.327Z,2.00
2023-03-07T08:45:00.437Z,1.50
2023-03-07T08:47:30.347Z,1.52
2023-03-07T08:49:57.531Z,1.90
2023-03-07T08:52:24.681Z,1.33
2023-03-07T08:54:51.833Z,1.20
2023-03-07T08:57:18.919Z,1.30
2023-03-07T08:59:46.013Z,1.30
2023-03-07T09:02:13.202Z,1.42
2023-03-07T09:04:40.516Z,1.10
2023-03-07T09:07:07.659Z,1.35
2023-03-07T09:09:34.858Z,1.38
2023-03-07T09:12:02.031Z,1.05
2023-03-07T09:14:29.148Z,1.10
2023-03-07T09:16:56.224Z,1.17
2023-03-07T09:19:23.847Z,1.30
2023-03-07T09:21:51.505Z,1.35
2023-03-07T09:24:18.736Z,1.10
2023-03-07T09:26:45.917Z,1.70
2023-03-07T09:29:13.057Z,1.40
2023-03-07T09:31:41.492Z,1.25
2023-03-07T09:34:08.722Z,1.45
2023-03-07T09:36:37.117Z,1.80
2023-03-07T09:39:06.048Z,2.42
2023-03-07T09:41:42.214Z,1.60
2023-03-07T09:44:16.381Z,1.40
2023-03-07T09:47:21.159Z,1.77
2023-03-07T09:49:52.227Z,1.80
2023-03-07T09:52:19.517Z,1.88
2023-03-07T09:54:50.849Z,1.65
2023-03-07T09:57:27.029Z,1.58
2023-03-07T09:59:57.370Z,1.27
2023-03-07T10:02:38.325Z,1.85
2023-03-07T10:05:12.681Z,1.70
2023-03-07T10:07:39.953Z,1.63
2023-03-07T10:10:11.645Z,2.05
2023-03-07T10:12:54.238Z,1.80
2023-03-07T10:15:50.784Z,1.70
2023-03-07T10:18:36.024Z,1.80
2023-03-07T10:21:03.323Z,2.58
2023-03-07T10:23:42.467Z,1.98
2023-03-07T10:26:09.692Z,1.83
2023-03-07T10:28:41.240Z,1.95
2023-03-07T10:31:12.454Z,1.88
2023-03-07T10:33:40.845Z,1.67
2023-03-07T10:36:11.166Z,1.65
2023-03-07T10:38:41.169Z,1.70
2023-03-07T10:41:14.186Z,1.50
2023-03-07T10:43:41.644Z,2.20
2023-03-07T10:46:24.758Z,2.00
2023-03-07T10:48:54.369Z,1.50
2023-03-07T10:51:28.751Z,1.60
2023-03-07T10:53:57.154Z,1.70
2023-03-07T10:56:24.294Z,1.40
2023-03-07T10:59:10.791Z,1.52
2023-03-07T11:01:39.163Z,1.50
2023-03-07T11:04:21.930Z,1.35
2023-03-07T11:06:56.753Z,1.35
2023-03-07T11:09:31.864Z,1.70
2023-03-07T11:12:00.238Z,0.95
2023-03-07T11:14:29.121Z,1.40
2023-03-07T11:17:00.337Z,1.48
2023-03-07T11:19:33.417Z,1.80
2023-03-07T11:22:01.538Z,1.27
2023-03-07T11:24:29.684Z,1.38
2023-03-07T11:26:58.023Z,1.10
2023-03-07T11:29:25.974Z,1.42
2023-03-07T11:32:02.139Z,1.45
2023-03-07T11:34:49.336Z,1.80
2023-03-07T11:37:23.706Z,1.50
2023-03-07T11:39:59.962Z,1.55
2023-03-07T11:42:39.846Z,1.48
2023-03-07T11:45:25.145Z,1.80
2023-03-07T11:48:01.261Z,1.70
2023-03-07T11:50:30.194Z,2.05
2023-03-07T11:53:22.096Z,1.67
2023-03-07T11:55:49.203Z,1.65
2023-03-07T11:58:27.918Z,1.52
2023-03-07T12:01:13.987Z,1.23
2023-03-07T12:03:41.112Z,1.63
2023-03-07T12:06:20.632Z,1.77
2023-03-07T12:08:50.537Z,1.67
2023-03-07T12:11:26.912Z,1.73
2023-03-07T12:14:00.130Z,1.77
2023-03-07T12:16:39.529Z,1.75
2023-03-07T12:19:12.534Z,1.20
2023-03-07T12:21:58.555Z,1.50
2023-03-07T12:24:46.320Z,1.20
2023-03-07T12:27:17.721Z,1.40
2023-03-07T12:30:14.462Z,1.63
2023-03-07T12:32:42.066Z,1.85
2023-03-07T12:35:16.927Z,1.30
2023-03-07T12:37:47.736Z,2.28
2023-03-07T12:40:20.428Z,1.73
2023-03-07T12:45:17.100Z,2.25
2023-03-07T12:47:57.174Z,1.90
2023-03-07T12:50:30.268Z,1.55
2023-03-07T12:53:18.814Z,1.77
2023-03-07T12:55:48.389Z,1.60
2023-03-07T12:58:24.418Z,1.10
2023-03-07T13:00:55.234Z,1.45
2023-03-07T13:03:24.881Z,1.33
2023-03-07T13:05:52.208Z,1.83
2023-03-07T13:08:22.352Z,1.58
2023-03-07T13:10:49.764Z,1.67
2023-03-07T13:13:35.883Z,1.08
2023-03-07T13:16:06.486Z,1.50
2023-03-07T13:18:33.769Z,1.45
2023-03-07T13:21:09.435Z,1.90
2023-03-07T13:23:38.625Z,1.90
2023-03-07T13:26:07.599Z,1.38
2023-03-07T13:28:34.839Z,1.38
2023-03-07T13:31:17.486Z,1.50
2023-03-07T13:33:44.689Z,1.27
2023-03-07T13:36:30.729Z,1.25
2023-03-07T13:38:57.946Z,1.13
2023-03-07T13:41:43.698Z,1.60
2023-03-07T13:44:33.895Z,1.73
2023-03-07T13:47:04.981Z,2.03
2023-03-07T13:49:42.837Z,1.58
2023-03-07T13:52:17.823Z,0.90
2023-03-07T13:54:47.719Z,1.02
2023-03-07T13:57:19.261Z,1.48
2023-03-07T13:59:52.990Z,0.95
2023-03-07T14:02:21.026Z,1.05
2023-03-07T14:04:54.201Z,1.02
2023-03-07T14:07:44.362Z,1.23
2023-03-07T14:10:28.411Z,1.23
2023-03-07T14:13:01.050Z,1.67
2023-03-07T14:18:04.756Z,1.30
2023-03-07T14:21:09.435Z,1.35
2023-03-07T14:23:36.580Z,1.20
2023-03-07T14:26:15.580Z,1.30
2023-03-07T14:28:58.186Z,1.45
2023-03-07T14:31:37.407Z,2.28
2023-03-07T14:34:22.599Z,1.48
2023-03-07T14:36:51.026Z,1.92
2023-03-07T14:39:21.284Z,1.27
2023-03-07T14:41:54.331Z,1.30
2023-03-07T14:44:24.363Z,1.50
2023-03-07T14:47:07.095Z,1.45
2023-03-07T14:49:45.280Z,0.98
2023-03-07T14:52:24.607Z,1.02
2023-03-07T14:54:58.596Z,0.75
2023-03-07T14:57:37.336Z,1.02
2023-03-07T15:00:23.368Z,1.17
2023-03-07T15:02:52.375Z,1.52
2023-03-07T15:05:21.158Z,1.27
2023-03-07T15:07:48.365Z,1.35
2023-03-07T15:10:16.598Z,1.13
2023-03-07T15:12:44.720Z,1.50
2023-03-07T15:15:17.883Z,1.13
2023-03-07T15:17:45.075Z,0.98
2023-03-07T15:20:21.426Z,1.40
2023-03-07T15:22:48.622Z,1.40
2023-03-07T15:25:22.667Z,1.10
2023-03-07T15:28:01.637Z,1.15
2023-03-07T15:30:33.157Z,1.60
2023-03-07T15:33:18.664Z,1.00
2023-03-07T15:35:46.490Z,1.33
2023-03-07T15:38:25.941Z,1.23
2023-03-07T15:40:53.107Z,1.13
2023-03-07T15:43:23.462Z,1.20
2023-03-07T15:46:06.985Z,1.33
2023-03-07T15:48:34.135Z,1.35
2023-03-07T15:51:03.216Z,2.15
2023-03-07T15:53:31.871Z,1.30
2023-03-07T15:56:00.401Z,1.27
2023-03-07T15:58:27.959Z,1.40
2023-03-07T16:01:24.577Z,1.10
2023-03-07T16:03:54.707Z,1.20
2023-03-07T16:06:44.996Z,1.30
2023-03-07T16:09:14.751Z,1.50
2023-03-07T16:11:42.693Z,1.50
2023-03-07T16:14:26.380Z,1.48
2023-03-07T16:16:54.629Z,1.40
2023-03-07T16:19:21.765Z,1.52
2023-03-07T16:21:48.976Z,1.50
2023-03-07T16:24:16.111Z,2.00
2023-03-07T16:26:44.368Z,1.20
2023-03-07T16:29:15.701Z,1.05
2023-03-07T16:31:43.174Z,1.17
2023-03-07T16:34:15.321Z,1.25
2023-03-07T16:36:42.954Z,1.23
2023-03-07T16:39:11.235Z,0.90
2023-03-07T16:41:39.436Z,0.98
2023-03-07T16:44:06.615Z,1.30
2023-03-07T16:46:35.853Z,0.90
2023-03-07T16:49:02.929Z,1.05
2023-03-07T16:51:31.036Z,1.15
2023-03-07T16:53:59.782Z,1.23
2023-03-07T16:56:29.912Z,0.90
2023-03-07T16:58:57.759Z,1.10
2023-03-07T17:01:24.975Z,1.67
2023-03-07T17:03:52.248Z,1.20
2023-03-07T17:06:25.285Z,1.20
2023-03-07T17:08:55.314Z,1.35
2023-03-07T17:11:24.535Z,1.05
2023-03-07T17:13:53.498Z,1.40
2023-03-07T17:16:20.847Z,1.48
2023-03-07T17:18:48.088Z,0.90
2023-03-07T17:21:16.834Z,1.75
2023-03-07T17:23:44.874Z,1.25
2023-03-07T17:26:17.234Z,1.25
2023-03-07T17:28:45.858Z,1.20
2023-03-07T17:31:13.500Z,1.10
2023-03-07T17:33:40.660Z,1.00
2023-03-07T17:36:10.203Z,1.00
2023-03-07T17:38:37.321Z,1.35
2023-03-07T17:41:04.506Z,1.35
2023-03-07T17:43:33.485Z,1.00
2023-03-07T17:46:00.840Z,1.00
2023-03-07T17:48:28.381Z,1.30
2023-03-07T17:50:55.791Z,1.30
2023-03-07T17:53:22.978Z,1.35
2023-03-07T17:55:51.398Z,1.10
2023-03-07T17:58:18.662Z,1.55
2023-03-07T18:00:45.748Z,1.75
2023-03-07T18:03:13.062Z,1.45
2023-03-07T18:05:40.356Z,1.60
2023-03-07T18:08:07.569Z,1.67
2023-03-07T18:10:34.705Z,1.80
2023-03-07T18:13:01.808Z,1.45
2023-03-07T18:15:28.991Z,1.35
2023-03-07T18:17:57.604Z,0.93
2023-03-07T18:20:25.554Z,1.10
2023-03-07T18:22:52.831Z,1.20
2023-03-07T18:25:20.204Z,1.40
2023-03-07T18:27:47.942Z,1.60
2023-03-07T18:30:15.302Z,1.40
2023-03-07T18:32:42.692Z,1.50
2023-03-07T18:35:10.413Z,2.00
2023-03-07T18:37:37.654Z,2.10
2023-03-07T18:40:05.589Z,1.92
2023-03-07T18:42:33.439Z,1.52
2023-03-07T18:45:00.588Z,1.60
2023-03-07T18:47:27.746Z,1.50
2023-03-07T18:49:54.971Z,1.45
2023-03-07T18:52:22.375Z,1.60
2023-03-07T18:54:49.723Z,1.45
2023-03-07T18:57:16.852Z,1.40
2023-03-07T18:59:44.107Z,2.20
2023-03-07T19:02:11.859Z,1.95
2023-03-07T19:04:39.017Z,2.08
2023-03-07T19:07:07.021Z,1.65
2023-03-07T19:09:34.122Z,1.80
2023-03-07T19:12:01.318Z,1.90
2023-03-07T19:14:28.471Z,1.40
2023-03-07T19:16:55.838Z,1.70
2023-03-07T19:19:23.009Z,1.58
2023-03-07T19:21:50.217Z,1.60
2023-03-07T19:24:17.365Z,1.80
2023-03-07T19:26:44.488Z,1.88
2023-03-07T19:29:13.029Z,1.70
2023-03-07T19:31:43.568Z,1.80
2023-03-07T19:34:11.046Z,1.30
2023-03-07T19:36:41.675Z,1.48
2023-03-07T19:39:10.451Z,1.88
2023-03-07T19:41:39.562Z,1.55
2023-03-07T19:44:11.927Z,1.65
2023-03-07T19:46:39.337Z,2.10
2023-03-07T19:49:07.570Z,1.80
2023-03-07T19:51:35.003Z,1.73
2023-03-07T19:54:04.113Z,1.70
2023-03-07T19:56:32.238Z,1.25
2023-03-07T19:59:00.488Z,1.70
2023-03-07T20:01:28.656Z,1.20
2023-03-07T20:03:56.800Z,1.60
2023-03-07T20:06:25.511Z,1.85
2023-03-07T20:08:53.349Z,1.70
2023-03-07T20:11:27.055Z,1.40
2023-03-07T20:13:56.007Z,1.80
2023-03-07T20:16:23.773Z,1.48
2023-03-07T20:18:51.878Z,1.50
2023-03-07T20:21:19.923Z,1.65
2023-03-07T20:23:48.252Z,1.77
2023-03-07T20:26:17.254Z,1.70
2023-03-07T20:28:44.968Z,1.67
2023-03-07T20:31:12.737Z,1.42
2023-03-07T20:33:41.111Z,1.48
2023-03-07T20:36:09.896Z,1.80
2023-03-07T20:38:37.930Z,1.40
2023-03-07T20:41:06.018Z,1.50
2023-03-07T20:43:34.472Z,1.27
2023-03-07T20:46:05.340Z,1.63
2023-03-07T20:48:32.593Z,1.80
2023-03-07T20:51:18.302Z,1.42
2023-03-07T20:53:46.395Z,1.85
2023-03-07T20:56:13.868Z,2.10
2023-03-07T20:58:41.147Z,1.60
2023-03-07T21:01:08.588Z,2.50
2023-03-07T21:03:36.440Z,3.53
2023-03-07T21:06:05.242Z,2.15
2023-03-07T21:08:33.744Z,2.90
2023-03-07T21:11:04.017Z,2.63
2023-03-07T21:13:31.933Z,2.88
2023-03-07T21:16:00.309Z,2.53
2023-03-07T21:18:28.015Z,2.50
2023-03-07T21:20:55.178Z,2.67
2023-03-07T21:23:22.574Z,2.50
2023-03-07T21:25:49.737Z,2.58
2023-03-07T21:28:17.009Z,2.53
2023-03-07T21:30:44.136Z,2.58
2023-03-07T21:33:11.576Z,2.70
2023-03-07T21:35:39.224Z,3.05
2023-03-07T21:38:06.768Z,3.00
2023-03-07T21:40:34.094Z,2.45
2023-03-07T21:43:01.275Z,2.97
2023-03-07T21:45:28.576Z,3.30
2023-03-07T21:47:56.671Z,3.00
2023-03-07T21:50:24.256Z,3.38
2023-03-07T21:52:51.515Z,3.50
2023-03-07T21:55:19.054Z,4.47
2023-03-07T21:57:46.460Z,4.28
2023-03-07T22:00:17.092Z,3.97
2023-03-07T22:02:45.181Z,3.65
2023-03-07T22:05:12.736Z,3.83
2023-03-07T22:07:39.912Z,3.72
2023-03-07T22:10:07.271Z,3.67
2023-03-07T22:12:34.659Z,3.47
2023-03-07T22:15:01.831Z,3.90
2023-03-07T22:17:28.963Z,4.10
2023-03-07T22:19:56.119Z,4.68
2023-03-07T22:22:23.236Z,4.60
2023-03-07T22:24:50.398Z,4.90
2023-03-07T22:27:17.826Z,5.45
2023-03-07T22:29:45.300Z,4.90
2023-03-07T22:32:12.454Z,4.55
2023-03-07T22:34:41.149Z,4.80
2023-03-07T22:37:08.306Z,5.35
2023-03-07T22:39:35.467Z,4.00
2023-03-07T22:42:02.685Z,4.32
2023-03-07T22:44:29.857Z,4.43
2023-03-07T22:46:56.936Z,4.70
2023-03-07T22:49:24.006Z,4.00
2023-03-07T22:51:51.652Z,3.97
2023-03-07T22:54:18.814Z,4.15
2023-03-07T22:56:46.239Z,4.65
2023-03-07T22:59:13.396Z,3.97
2023-03-07T23:01:40.948Z,4.00
2023-03-07T23:04:08.979Z,4.45
2023-03-07T23:06:36.934Z,4.18
2023-03-07T23:09:04.815Z,3.65
2023-03-07T23:11:32.542Z,4.47
2023-03-07T23:13:59.768Z,4.57
2023-03-07T23:16:28.589Z,4.35
2023-03-07T23:18:56.814Z,4.25
2023-03-07T23:21:25.450Z,4.40
2023-03-07T23:23:53.691Z,4.20
2023-03-07T23:26:22.401Z,3.97
2023-03-07T23:28:49.890Z,4.00
2023-03-07T23:31:21.511Z,4.05
2023-03-07T23:33:49.195Z,4.10
2023-03-07T23:36:19.688Z,3.50
2023-03-07T23:38:47.041Z,3.40
2023-03-07T23:41:14.333Z,3.45
2023-03-07T23:43:41.479Z,3.58
2023-03-07T23:46:08.663Z,3.63
2023-03-07T23:48:35.957Z,3.78
2023-03-07T23:51:03.091Z,3.42
2023-03-07T23:53:30.218Z,3.40
2023-03-07T23:55:57.290Z,3.70
2023-03-07T23:58:24.433Z,3.90
